createdAt,value
2019-04-16T00:00:17.634Z,0.00
2019-04-16T00:01:17.621Z,0.00
2019-04-16T00:02:18.755Z,0.00
2019-04-16T00:03:17.656Z,0.00
2019-04-16T00:04:17.599Z,0.00
2019-04-16T00:05:17.579Z,0.00
2019-04-16T00:06:17.566Z,0.00
2019-04-16T00:07:17.557Z,0.00
2019-04-16T00:08:27.238Z,0.00
2019-04-16T00:09:18.548Z,0.00
2019-04-16T00:10:17.526Z,0.00
2019-04-16T00:11:17.515Z,0.00
2019-04-16T00:12:17.522Z,0.00
2019-04-16T00:13:17.502Z,0.00
2019-04-16T00:14:17.531Z,0.00
2019-04-16T00:15:17.471Z,0.00
2019-04-16T00:16:17.459Z,0.00
2019-04-16T00:17:17.451Z,0.00
2019-04-16T00:18:18.755Z,0.00
2019-04-16T00:19:17.460Z,0.00
2019-04-16T00:20:17.451Z,0.00
2019-04-16T00:21:17.417Z,0.00
2019-04-16T00:22:17.408Z,0.00
2019-04-16T00:23:17.386Z,0.00
2019-04-16T00:24:18.523Z,0.00
2019-04-16T00:25:17.381Z,0.00
2019-04-16T00:26:17.400Z,0.00
2019-04-16T00:27:17.348Z,0.00
2019-04-16T00:28:17.332Z,0.00
2019-04-16T00:29:17.331Z,0.00
2019-04-16T00:30:17.327Z,0.00
2019-04-16T00:31:17.302Z,0.00
2019-04-16T00:32:17.336Z,0.00
2019-04-16T00:33:17.285Z,0.00
2019-04-16T00:34:17.276Z,0.00
2019-04-16T00:35:17.271Z,0.00
2019-04-16T00:36:18.146Z,0.00
2019-04-16T00:37:20.504Z,0.00
2019-04-16T00:38:17.265Z,0.00
2019-04-16T00:39:17.231Z,0.00
2019-04-16T00:40:17.226Z,0.00
2019-04-16T00:41:17.196Z,0.00
2019-04-16T00:42:17.191Z,0.00
2019-04-16T00:43:17.175Z,0.00
2019-04-16T00:44:17.203Z,0.00
2019-04-16T00:45:17.166Z,0.00
2019-04-16T00:46:17.144Z,0.00
2019-04-16T00:47:17.155Z,0.00
2019-04-16T00:48:17.141Z,0.00
2019-04-16T00:49:17.118Z,0.00
2019-04-16T00:50:17.169Z,0.00
2019-04-16T00:51:17.096Z,0.00
2019-04-16T00:52:17.088Z,0.00
2019-04-16T00:53:17.072Z,0.00
2019-04-16T00:54:17.058Z,0.00
2019-04-16T00:55:17.091Z,0.00
2019-04-16T00:56:17.061Z,0.00
2019-04-16T00:57:17.965Z,0.00
2019-04-16T00:58:19.508Z,0.00
2019-04-16T00:59:17.006Z,0.00
2019-04-16T01:00:17.011Z,0.00
2019-04-16T01:01:16.988Z,0.00
2019-04-16T01:02:17.002Z,0.00
2019-04-16T01:03:16.966Z,0.00
2019-04-16T01:04:16.955Z,0.00
2019-04-16T01:05:16.953Z,0.00
2019-04-16T01:06:16.935Z,0.00
2019-04-16T01:07:16.924Z,0.00
2019-04-16T01:08:16.949Z,0.00
2019-04-16T01:09:16.911Z,0.00
2019-04-16T01:10:16.914Z,0.00
2019-04-16T01:11:16.879Z,0.00
2019-04-16T01:12:16.873Z,0.00
2019-04-16T01:13:16.864Z,0.00
2019-04-16T01:14:16.895Z,0.00
2019-04-16T01:15:16.853Z,0.00
2019-04-16T01:16:16.827Z,0.00
2019-04-16T01:17:16.816Z,0.00
2019-04-16T01:18:16.806Z,0.00
2019-04-16T01:19:16.796Z,0.00
2019-04-16T01:20:16.844Z,0.00
2019-04-16T01:21:16.776Z,0.00
2019-04-16T01:22:16.917Z,0.00
2019-04-16T01:23:17.810Z,0.00
2019-04-16T01:24:17.496Z,0.00
2019-04-16T01:25:16.742Z,0.00
2019-04-16T01:26:16.757Z,0.00
2019-04-16T01:27:16.711Z,0.00
2019-04-16T01:28:16.704Z,0.00
2019-04-16T01:29:16.690Z,0.00
2019-04-16T01:30:16.703Z,0.00
2019-04-16T01:31:16.673Z,0.00
2019-04-16T01:32:16.706Z,0.00
2019-04-16T01:33:16.649Z,0.00
2019-04-16T01:34:18.161Z,0.00
2019-04-16T01:35:19.011Z,0.00
2019-04-16T01:36:16.626Z,0.00
2019-04-16T01:37:16.609Z,0.00
2019-04-16T01:38:16.623Z,0.00
2019-04-16T01:39:18.224Z,0.00
2019-04-16T01:40:18.752Z,0.00
2019-04-16T01:41:16.578Z,0.00
2019-04-16T01:42:16.557Z,0.00
2019-04-16T01:43:16.542Z,0.00
2019-04-16T01:44:16.574Z,0.00
2019-04-16T01:45:16.521Z,0.00
2019-04-16T01:46:16.522Z,0.00
2019-04-16T01:47:16.513Z,0.00
2019-04-16T01:48:16.511Z,0.00
2019-04-16T01:49:16.479Z,0.00
2019-04-16T01:50:16.492Z,0.00
2019-04-16T01:51:16.468Z,0.00
2019-04-16T01:52:19.064Z,0.00
2019-04-16T01:53:18.301Z,0.00
2019-04-16T01:54:16.428Z,0.00
2019-04-16T01:55:16.417Z,0.00
2019-04-16T01:56:16.470Z,0.00
2019-04-16T01:57:16.395Z,0.00
2019-04-16T01:58:16.386Z,0.00
2019-04-16T01:59:16.382Z,0.00
2019-04-16T02:00:16.364Z,0.00
2019-04-16T02:01:16.363Z,0.00
2019-04-16T02:02:16.384Z,0.00
2019-04-16T02:03:17.813Z,0.00
2019-04-16T02:04:19.529Z,0.00
2019-04-16T02:05:16.319Z,0.00
2019-04-16T02:06:16.385Z,0.00
2019-04-16T02:07:16.299Z,0.00
2019-04-16T02:08:16.278Z,0.00
2019-04-16T02:09:22.727Z,0.00
2019-04-16T02:10:17.266Z,0.00
2019-04-16T02:11:16.258Z,0.00
2019-04-16T02:12:16.242Z,0.00
2019-04-16T02:13:16.230Z,0.00
2019-04-16T02:14:18.476Z,0.00
2019-04-16T02:15:16.229Z,0.00
2019-04-16T02:16:16.216Z,0.00
2019-04-16T02:17:16.185Z,0.00
2019-04-16T02:18:16.184Z,0.00
2019-04-16T02:19:16.163Z,0.00
2019-04-16T02:20:16.155Z,0.00
2019-04-16T02:21:16.178Z,0.00
2019-04-16T02:22:16.131Z,0.00
2019-04-16T02:23:16.706Z,0.00
2019-04-16T02:24:18.592Z,0.00
2019-04-16T02:25:18.772Z,0.00
2019-04-16T02:26:16.113Z,0.00
2019-04-16T02:27:16.143Z,0.00
2019-04-16T02:28:16.077Z,0.00
2019-04-16T02:29:16.056Z,0.00
2019-04-16T02:30:16.052Z,0.00
2019-04-16T02:31:16.436Z,0.00
2019-04-16T02:32:16.045Z,0.00
2019-04-16T02:33:16.064Z,0.00
2019-04-16T02:34:16.014Z,0.00
2019-04-16T02:35:16.026Z,0.00
2019-04-16T02:36:15.988Z,0.00
2019-04-16T02:37:15.982Z,0.00
2019-04-16T02:38:15.962Z,0.00
2019-04-16T02:39:15.989Z,0.00
2019-04-16T02:40:18.335Z,0.00
2019-04-16T02:41:15.934Z,0.00
2019-04-16T02:42:15.936Z,0.00
2019-04-16T02:43:15.911Z,0.00
2019-04-16T02:44:17.077Z,0.00
2019-04-16T02:45:23.016Z,0.00
2019-04-16T02:46:16.875Z,0.00
2019-04-16T02:47:15.883Z,0.00
2019-04-16T02:48:17.354Z,0.00
2019-04-16T02:49:15.849Z,0.00
2019-04-16T02:50:15.841Z,0.00
2019-04-16T02:51:15.851Z,0.00
2019-04-16T02:52:17.324Z,0.00
2019-04-16T02:53:15.807Z,0.00
2019-04-16T02:54:15.811Z,0.00
2019-04-16T02:55:15.791Z,0.00
2019-04-16T02:56:18.766Z,0.00
2019-04-16T02:57:15.817Z,0.00
2019-04-16T02:58:15.755Z,0.00
2019-04-16T02:59:15.740Z,0.00
2019-04-16T03:00:18.473Z,0.00
2019-04-16T03:01:20.410Z,0.00
2019-04-16T03:02:16.716Z,0.00
2019-04-16T03:03:15.745Z,0.00
2019-04-16T03:04:15.686Z,0.00
2019-04-16T03:05:15.676Z,0.00
2019-04-16T03:06:15.665Z,0.00
2019-04-16T03:07:15.664Z,0.00
2019-04-16T03:08:15.644Z,0.00
2019-04-16T03:09:15.667Z,0.00
2019-04-16T03:10:15.639Z,0.00
2019-04-16T03:11:17.121Z,0.00
2019-04-16T03:12:17.546Z,0.00
2019-04-16T03:13:16.594Z,0.00
2019-04-16T03:14:15.624Z,0.00
2019-04-16T03:15:15.596Z,0.00
2019-04-16T03:16:15.563Z,0.00
2019-04-16T03:17:15.589Z,0.00
2019-04-16T03:18:16.185Z,0.00
2019-04-16T03:19:19.259Z,0.00
2019-04-16T03:20:15.519Z,0.00
2019-04-16T03:21:15.563Z,0.00
2019-04-16T03:22:15.505Z,0.00
2019-04-16T03:23:15.485Z,0.00
2019-04-16T03:24:15.476Z,0.00
2019-04-16T03:25:15.468Z,0.00
2019-04-16T03:26:17.531Z,0.00
2019-04-16T03:27:15.478Z,0.00
2019-04-16T03:28:15.432Z,0.00
2019-04-16T03:29:15.500Z,0.00
2019-04-16T03:30:15.750Z,0.00
2019-04-16T03:31:22.231Z,0.00
2019-04-16T03:32:16.735Z,0.00
2019-04-16T03:33:16.017Z,0.00
2019-04-16T03:34:15.368Z,0.00
2019-04-16T03:35:15.360Z,0.00
2019-04-16T03:36:15.347Z,0.00
2019-04-16T03:37:15.336Z,0.00
2019-04-16T03:38:15.344Z,0.00
2019-04-16T03:39:15.361Z,0.00
2019-04-16T03:40:18.290Z,0.00
2019-04-16T03:41:15.300Z,0.00
2019-04-16T03:42:15.284Z,0.00
2019-04-16T03:43:15.283Z,0.00
2019-04-16T03:44:15.261Z,0.00
2019-04-16T03:45:15.293Z,0.00
2019-04-16T03:46:15.245Z,0.00
2019-04-16T03:47:15.780Z,0.00
2019-04-16T03:48:15.481Z,0.00
2019-04-16T03:49:15.208Z,0.00
2019-04-16T03:50:15.216Z,0.00
2019-04-16T03:51:15.214Z,0.00
2019-04-16T03:52:15.181Z,0.00
2019-04-16T03:53:17.583Z,0.00
2019-04-16T03:54:15.157Z,0.00
2019-04-16T03:55:15.154Z,0.00
2019-04-16T03:56:15.139Z,0.00
2019-04-16T03:57:15.224Z,0.00
2019-04-16T03:58:15.310Z,0.00
2019-04-16T03:59:15.323Z,0.00
2019-04-16T04:00:15.316Z,0.00
2019-04-16T04:01:15.559Z,0.00
2019-04-16T04:02:18.923Z,0.00
2019-04-16T04:03:16.127Z,0.00
2019-04-16T04:04:15.072Z,0.00
2019-04-16T04:05:15.067Z,0.00
2019-04-16T04:06:15.031Z,0.00
2019-04-16T04:07:15.029Z,0.00
2019-04-16T04:08:17.608Z,0.00
2019-04-16T04:09:15.035Z,0.00
2019-04-16T04:10:29.034Z,0.00
2019-04-16T04:11:16.007Z,0.00
2019-04-16T04:12:14.970Z,0.00
2019-04-16T04:13:18.586Z,0.00
2019-04-16T04:14:15.007Z,0.00
2019-04-16T04:15:15.068Z,0.00
2019-04-16T04:16:14.924Z,0.00
2019-04-16T04:17:14.913Z,0.00
2019-04-16T04:18:14.922Z,0.00
2019-04-16T04:19:15.997Z,0.00
2019-04-16T04:20:18.161Z,0.00
2019-04-16T04:21:14.927Z,0.00
2019-04-16T04:22:14.862Z,0.00
2019-04-16T04:23:14.863Z,0.00
2019-04-16T04:24:14.841Z,0.00
2019-04-16T04:25:14.847Z,5.62
2019-04-16T04:26:14.820Z,5.62
2019-04-16T04:27:18.637Z,5.62
2019-04-16T04:28:18.465Z,5.62
2019-04-16T04:29:15.874Z,5.62
2019-04-16T04:30:14.781Z,5.62
2019-04-16T04:31:14.771Z,5.62
2019-04-16T04:32:14.755Z,11.25
2019-04-16T04:33:14.826Z,11.25
2019-04-16T04:34:16.956Z,11.25
2019-04-16T04:35:20.159Z,11.25
2019-04-16T04:36:18.709Z,16.88
2019-04-16T04:37:14.702Z,16.88
2019-04-16T04:38:14.693Z,16.88
2019-04-16T04:39:15.804Z,16.88
2019-04-16T04:40:16.258Z,16.88
2019-04-16T04:41:14.658Z,22.50
2019-04-16T04:42:14.648Z,22.50
2019-04-16T04:43:14.639Z,22.50
2019-04-16T04:44:14.643Z,22.50
2019-04-16T04:45:14.643Z,28.12
2019-04-16T04:46:15.605Z,28.12
2019-04-16T04:47:15.533Z,33.75
2019-04-16T04:48:14.586Z,33.75
2019-04-16T04:49:14.585Z,33.75
2019-04-16T04:50:14.565Z,39.38
2019-04-16T04:51:14.619Z,39.38
2019-04-16T04:52:15.211Z,45.00
2019-04-16T04:53:15.656Z,45.00
2019-04-16T04:54:14.534Z,50.62
2019-04-16T04:55:14.511Z,50.62
2019-04-16T04:56:14.500Z,56.25
2019-04-16T04:57:14.523Z,56.25
2019-04-16T04:58:14.481Z,61.88
2019-04-16T04:59:14.481Z,61.88
2019-04-16T05:00:14.463Z,67.50
2019-04-16T05:01:14.447Z,73.12
2019-04-16T05:02:15.446Z,73.12
2019-04-16T05:03:15.534Z,78.75
2019-04-16T05:04:19.274Z,84.38
2019-04-16T05:05:15.404Z,84.38
2019-04-16T05:06:14.395Z,84.38
2019-04-16T05:07:14.384Z,90.00
2019-04-16T05:08:14.373Z,90.00
2019-04-16T05:09:14.424Z,95.62
2019-04-16T05:10:14.357Z,95.62
2019-04-16T05:11:15.837Z,95.62
2019-04-16T05:12:14.338Z,101.25
2019-04-16T05:13:14.320Z,101.25
2019-04-16T05:14:14.417Z,101.25
2019-04-16T05:15:14.335Z,106.88
2019-04-16T05:16:14.298Z,106.88
2019-04-16T05:17:14.288Z,112.50
2019-04-16T05:18:14.270Z,112.50
2019-04-16T05:19:15.665Z,118.12
2019-04-16T05:20:15.450Z,118.12
2019-04-16T05:21:17.841Z,118.12
2019-04-16T05:22:14.231Z,129.38
2019-04-16T05:23:14.250Z,129.38
2019-04-16T05:24:14.204Z,129.38
2019-04-16T05:25:14.222Z,129.38
2019-04-16T05:26:14.310Z,140.62
2019-04-16T05:27:14.235Z,135.00
2019-04-16T05:28:14.253Z,140.62
2019-04-16T05:29:17.150Z,140.62
2019-04-16T05:30:14.310Z,146.25
2019-04-16T05:31:14.347Z,151.88
2019-04-16T05:32:14.121Z,163.12
2019-04-16T05:33:14.150Z,168.75
2019-04-16T05:34:17.197Z,174.38
2019-04-16T05:35:14.128Z,180.00
2019-04-16T05:36:15.319Z,185.62
2019-04-16T05:37:16.675Z,191.25
2019-04-16T05:38:15.060Z,196.88
2019-04-16T05:39:14.100Z,202.50
2019-04-16T05:40:14.068Z,208.12
2019-04-16T05:41:20.517Z,213.75
2019-04-16T05:42:15.208Z,219.38
2019-04-16T05:43:14.085Z,225.00
2019-04-16T05:44:13.997Z,230.62
2019-04-16T05:45:13.995Z,236.25
2019-04-16T05:46:14.017Z,241.88
2019-04-16T05:47:16.827Z,253.12
2019-04-16T05:48:13.955Z,258.75
2019-04-16T05:49:13.957Z,258.75
2019-04-16T05:50:13.958Z,264.38
2019-04-16T05:51:13.923Z,270.00
2019-04-16T05:52:13.963Z,275.62
2019-04-16T05:53:14.044Z,275.62
2019-04-16T05:54:13.891Z,281.25
2019-04-16T05:55:17.659Z,286.88
2019-04-16T05:56:13.869Z,292.50
2019-04-16T05:57:13.871Z,298.12
2019-04-16T05:58:13.918Z,303.75
2019-04-16T05:59:13.836Z,309.38
2019-04-16T06:00:14.055Z,315.00
2019-04-16T06:01:14.413Z,315.00
2019-04-16T06:02:15.081Z,315.00
2019-04-16T06:03:13.793Z,331.88
2019-04-16T06:04:13.822Z,354.38
2019-04-16T06:05:13.787Z,365.62
2019-04-16T06:06:13.794Z,388.12
2019-04-16T06:07:13.841Z,416.25
2019-04-16T06:08:13.741Z,421.88
2019-04-16T06:09:13.736Z,405.00
2019-04-16T06:10:17.533Z,382.50
2019-04-16T06:11:27.638Z,416.25
2019-04-16T06:12:14.696Z,438.75
2019-04-16T06:13:13.687Z,421.88
2019-04-16T06:14:17.600Z,388.12
2019-04-16T06:15:14.711Z,382.50
2019-04-16T06:16:13.688Z,382.50
2019-04-16T06:17:13.664Z,382.50
2019-04-16T06:18:13.870Z,382.50
2019-04-16T06:19:13.625Z,388.12
2019-04-16T06:20:19.052Z,393.75
2019-04-16T06:21:14.600Z,399.38
2019-04-16T06:22:13.590Z,399.38
2019-04-16T06:23:13.614Z,405.00
2019-04-16T06:24:13.568Z,410.62
2019-04-16T06:25:13.696Z,416.25
2019-04-16T06:26:16.338Z,416.25
2019-04-16T06:27:13.542Z,421.88
2019-04-16T06:28:13.539Z,427.50
2019-04-16T06:29:13.715Z,427.50
2019-04-16T06:30:13.516Z,433.12
2019-04-16T06:31:13.494Z,438.75
2019-04-16T06:32:13.490Z,444.38
2019-04-16T06:33:13.481Z,450.00
2019-04-16T06:34:13.871Z,455.62
2019-04-16T06:35:13.527Z,461.25
2019-04-16T06:36:13.448Z,472.50
2019-04-16T06:37:13.433Z,478.12
2019-04-16T06:38:13.422Z,483.75
2019-04-16T06:39:13.412Z,495.00
2019-04-16T06:40:13.422Z,506.25
2019-04-16T06:41:13.408Z,523.12
2019-04-16T06:42:13.383Z,545.62
2019-04-16T06:43:13.365Z,618.75
2019-04-16T06:44:13.361Z,680.62
2019-04-16T06:45:13.345Z,742.50
2019-04-16T06:46:13.345Z,765.00
2019-04-16T06:47:13.344Z,798.75
2019-04-16T06:48:13.983Z,866.25
2019-04-16T06:49:14.353Z,877.50
2019-04-16T06:50:13.408Z,905.62
2019-04-16T06:51:13.308Z,939.38
2019-04-16T06:52:16.637Z,978.75
2019-04-16T06:53:13.282Z,1035.00
2019-04-16T06:54:13.278Z,1080.00
2019-04-16T06:55:13.283Z,1158.75
2019-04-16T06:56:13.288Z,1147.50
2019-04-16T06:57:13.215Z,1108.12
2019-04-16T06:58:16.644Z,1096.88
2019-04-16T06:59:16.685Z,1063.12
2019-04-16T07:00:13.209Z,945.00
2019-04-16T07:01:13.181Z,961.88
2019-04-16T07:02:13.165Z,770.62
2019-04-16T07:03:13.149Z,810.00
2019-04-16T07:04:13.154Z,759.38
2019-04-16T07:05:13.146Z,579.38
2019-04-16T07:06:13.208Z,680.62
2019-04-16T07:07:13.105Z,725.62
2019-04-16T07:08:17.894Z,883.12
2019-04-16T07:09:14.085Z,646.88
2019-04-16T07:10:13.077Z,1029.38
2019-04-16T07:11:13.080Z,1040.62
2019-04-16T07:12:13.084Z,1035.00
2019-04-16T07:13:13.081Z,990.00
2019-04-16T07:14:15.576Z,815.62
2019-04-16T07:15:13.062Z,900.00
2019-04-16T07:16:13.021Z,1074.38
2019-04-16T07:17:13.001Z,1181.25
2019-04-16T07:18:12.992Z,1198.12
2019-04-16T07:19:12.983Z,1260.00
2019-04-16T07:20:14.122Z,1293.75
2019-04-16T07:21:14.549Z,1316.25
2019-04-16T07:22:12.962Z,1321.88
2019-04-16T07:23:13.076Z,1333.12
2019-04-16T07:24:12.945Z,1344.38
2019-04-16T07:25:13.018Z,1372.50
2019-04-16T07:26:14.617Z,1372.50
2019-04-16T07:27:12.971Z,1389.38
2019-04-16T07:28:12.917Z,1383.75
2019-04-16T07:29:12.872Z,1411.88
2019-04-16T07:30:12.877Z,1434.38
2019-04-16T07:31:16.605Z,1434.38
2019-04-16T07:32:13.899Z,1440.00
2019-04-16T07:33:12.831Z,1400.62
2019-04-16T07:34:12.927Z,1411.88
2019-04-16T07:35:12.816Z,1428.75
2019-04-16T07:36:12.798Z,1417.50
2019-04-16T07:37:12.869Z,1451.25
2019-04-16T07:38:12.790Z,1485.00
2019-04-16T07:39:13.519Z,1490.62
2019-04-16T07:40:13.752Z,1462.50
2019-04-16T07:41:12.743Z,1468.12
2019-04-16T07:42:18.559Z,1473.75
2019-04-16T07:43:15.582Z,1350.00
2019-04-16T07:44:12.718Z,1091.25
2019-04-16T07:45:13.187Z,916.88
2019-04-16T07:46:12.692Z,1119.38
2019-04-16T07:47:12.787Z,1119.38
2019-04-16T07:48:12.683Z,1023.75
2019-04-16T07:49:12.671Z,888.75
2019-04-16T07:50:12.665Z,855.00
2019-04-16T07:51:12.678Z,843.75
2019-04-16T07:52:12.659Z,855.00
2019-04-16T07:53:14.355Z,877.50
2019-04-16T07:54:12.675Z,866.25
2019-04-16T07:55:12.610Z,894.38
2019-04-16T07:56:12.595Z,894.38
2019-04-16T07:57:12.622Z,894.38
2019-04-16T07:58:12.573Z,911.25
2019-04-16T07:59:12.570Z,900.00
2019-04-16T08:00:12.545Z,905.62
2019-04-16T08:01:16.075Z,916.88
2019-04-16T08:02:12.527Z,933.75
2019-04-16T08:03:12.518Z,922.50
2019-04-16T08:04:12.509Z,916.88
2019-04-16T08:05:12.494Z,939.38
2019-04-16T08:06:14.391Z,939.38
2019-04-16T08:07:12.486Z,956.25
2019-04-16T08:08:12.492Z,945.00
2019-04-16T08:09:12.474Z,961.88
2019-04-16T08:10:12.442Z,973.12
2019-04-16T08:11:12.577Z,995.62
2019-04-16T08:12:28.953Z,984.38
2019-04-16T08:13:14.161Z,973.12
2019-04-16T08:14:14.634Z,990.00
2019-04-16T08:15:15.151Z,961.88
2019-04-16T08:16:12.374Z,933.75
2019-04-16T08:17:12.388Z,916.88
2019-04-16T08:18:12.355Z,894.38
2019-04-16T08:19:15.117Z,883.12
2019-04-16T08:20:12.337Z,883.12
2019-04-16T08:21:12.550Z,877.50
2019-04-16T08:22:15.463Z,888.75
2019-04-16T08:23:12.327Z,894.38
2019-04-16T08:24:12.470Z,883.12
2019-04-16T08:25:12.286Z,888.75
2019-04-16T08:26:13.657Z,883.12
2019-04-16T08:27:17.959Z,883.12
2019-04-16T08:28:13.259Z,888.75
2019-04-16T08:29:12.221Z,894.38
2019-04-16T08:30:12.227Z,905.62
2019-04-16T08:31:13.260Z,911.25
2019-04-16T08:32:12.896Z,922.50
2019-04-16T08:33:12.200Z,933.75
2019-04-16T08:34:12.174Z,939.38
2019-04-16T08:35:12.268Z,950.62
2019-04-16T08:36:12.158Z,956.25
2019-04-16T08:37:12.162Z,961.88
2019-04-16T08:38:12.150Z,973.12
2019-04-16T08:39:12.133Z,978.75
2019-04-16T08:40:13.120Z,984.38
2019-04-16T08:41:13.213Z,995.62
2019-04-16T08:42:12.102Z,995.62
2019-04-16T08:43:12.092Z,995.62
2019-04-16T08:44:12.070Z,990.00
2019-04-16T08:45:12.183Z,984.38
2019-04-16T08:46:12.046Z,973.12
2019-04-16T08:47:12.957Z,973.12
2019-04-16T08:48:17.295Z,967.50
2019-04-16T08:49:14.787Z,973.12
2019-04-16T08:50:12.602Z,961.88
2019-04-16T08:51:11.985Z,956.25
2019-04-16T08:52:12.010Z,950.62
2019-04-16T08:53:14.240Z,939.38
2019-04-16T08:54:11.973Z,916.88
2019-04-16T08:55:11.959Z,888.75
2019-04-16T08:56:12.124Z,888.75
2019-04-16T08:57:11.930Z,900.00
2019-04-16T08:58:12.862Z,883.12
2019-04-16T08:59:11.938Z,871.88
2019-04-16T09:00:15.241Z,871.88
2019-04-16T09:01:11.889Z,916.88
2019-04-16T09:02:11.896Z,911.25
2019-04-16T09:03:15.190Z,922.50
2019-04-16T09:04:11.869Z,933.75
2019-04-16T09:05:11.911Z,950.62
2019-04-16T09:06:13.471Z,984.38
2019-04-16T09:07:13.149Z,1046.25
2019-04-16T09:08:13.751Z,1074.38
2019-04-16T09:09:16.604Z,995.62
2019-04-16T09:10:18.241Z,1006.88
2019-04-16T09:11:23.246Z,1012.50
2019-04-16T09:12:12.781Z,1068.75
2019-04-16T09:13:11.788Z,1670.62
2019-04-16T09:14:11.846Z,2143.12
2019-04-16T09:15:11.754Z,1946.25
2019-04-16T09:16:11.728Z,2508.75
2019-04-16T09:17:11.712Z,2070.00
2019-04-16T09:18:11.737Z,2469.38
2019-04-16T09:19:11.704Z,2373.75
2019-04-16T09:20:11.690Z,2143.12
2019-04-16T09:21:11.776Z,2446.88
2019-04-16T09:22:15.549Z,1456.88
2019-04-16T09:23:12.684Z,1434.38
2019-04-16T09:24:11.642Z,1839.38
2019-04-16T09:25:13.598Z,2722.50
2019-04-16T09:26:15.203Z,2688.75
2019-04-16T09:27:13.430Z,2238.75
2019-04-16T09:28:24.506Z,2638.12
2019-04-16T09:29:12.590Z,2565.00
2019-04-16T09:30:16.879Z,2536.88
2019-04-16T09:31:12.566Z,1946.25
2019-04-16T09:32:11.559Z,1400.62
2019-04-16T09:33:11.584Z,1186.88
2019-04-16T09:34:11.676Z,1181.25
2019-04-16T09:35:18.101Z,1186.88
2019-04-16T09:36:12.531Z,1186.88
2019-04-16T09:37:11.548Z,1361.25
2019-04-16T09:38:13.116Z,1310.62
2019-04-16T09:39:11.505Z,1226.25
2019-04-16T09:40:18.004Z,1186.88
2019-04-16T09:41:12.823Z,1350.00
2019-04-16T09:42:11.454Z,1344.38
2019-04-16T09:43:17.599Z,1518.75
2019-04-16T09:44:12.812Z,1653.75
2019-04-16T09:45:11.423Z,1951.88
2019-04-16T09:46:17.647Z,2975.62
2019-04-16T09:47:12.428Z,2896.88
2019-04-16T09:48:11.427Z,2756.25
2019-04-16T09:49:11.387Z,2964.38
2019-04-16T09:50:11.611Z,1276.88
2019-04-16T09:51:11.363Z,1552.50
2019-04-16T09:52:11.366Z,1209.38
2019-04-16T09:53:11.366Z,1074.38
2019-04-16T09:54:13.455Z,1040.62
2019-04-16T09:55:11.331Z,1715.62
2019-04-16T09:56:11.317Z,2064.38
2019-04-16T09:57:11.281Z,1822.50
2019-04-16T09:58:11.315Z,1940.62
2019-04-16T09:59:15.825Z,2885.62
2019-04-16T10:00:12.267Z,3121.88
2019-04-16T10:01:11.257Z,2806.88
2019-04-16T10:02:11.248Z,2553.75
2019-04-16T10:03:11.220Z,2705.62
2019-04-16T10:04:11.235Z,2351.25
2019-04-16T10:05:11.254Z,2565.00
2019-04-16T10:06:11.197Z,2238.75
2019-04-16T10:07:11.224Z,2520.00
2019-04-16T10:08:12.606Z,1777.50
2019-04-16T10:09:11.172Z,1940.62
2019-04-16T10:10:11.176Z,2154.38
2019-04-16T10:11:11.144Z,2452.50
2019-04-16T10:12:11.147Z,2604.38
2019-04-16T10:13:11.115Z,3195.00
2019-04-16T10:14:11.323Z,2711.25
2019-04-16T10:15:11.216Z,2880.00
2019-04-16T10:16:13.543Z,2632.50
2019-04-16T10:17:11.087Z,1940.62
2019-04-16T10:18:11.096Z,2407.50
2019-04-16T10:19:11.070Z,2835.00
2019-04-16T10:20:11.066Z,3279.38
2019-04-16T10:21:11.074Z,2773.12
2019-04-16T10:22:11.029Z,2255.62
2019-04-16T10:23:11.069Z,2761.88
2019-04-16T10:24:13.170Z,2565.00
2019-04-16T10:25:11.042Z,2514.38
2019-04-16T10:26:10.996Z,2570.62
2019-04-16T10:27:10.988Z,3380.62
2019-04-16T10:28:10.960Z,3774.38
2019-04-16T10:29:10.983Z,2356.88
2019-04-16T10:30:10.975Z,2002.50
2019-04-16T10:31:11.014Z,2148.75
2019-04-16T10:32:10.920Z,1822.50
2019-04-16T10:33:10.931Z,1659.38
2019-04-16T10:34:10.929Z,2531.25
2019-04-16T10:35:10.888Z,2008.12
2019-04-16T10:36:10.900Z,2233.12
2019-04-16T10:37:10.933Z,2233.12
2019-04-16T10:38:13.521Z,2677.50
2019-04-16T10:39:10.872Z,2041.88
2019-04-16T10:40:10.868Z,2615.62
2019-04-16T10:41:10.822Z,2818.12
2019-04-16T10:42:10.859Z,2947.50
2019-04-16T10:43:10.828Z,2278.12
2019-04-16T10:44:10.808Z,1642.50
2019-04-16T10:45:10.810Z,1563.75
2019-04-16T10:46:10.800Z,1794.38
2019-04-16T10:47:12.428Z,2413.12
2019-04-16T10:48:10.798Z,3200.62
2019-04-16T10:49:10.771Z,3121.88
2019-04-16T10:50:10.803Z,3228.75
2019-04-16T10:51:15.297Z,3211.88
2019-04-16T10:52:11.748Z,3127.50
2019-04-16T10:53:10.700Z,3195.00
2019-04-16T10:54:10.710Z,3121.88
2019-04-16T10:55:12.240Z,3054.38
2019-04-16T10:56:10.670Z,2908.12
2019-04-16T10:57:10.711Z,2745.00
2019-04-16T10:58:10.694Z,3043.12
2019-04-16T10:59:10.678Z,2947.50
2019-04-16T11:00:10.660Z,3099.38
2019-04-16T11:01:10.633Z,2711.25
2019-04-16T11:02:10.844Z,2266.88
2019-04-16T11:03:10.632Z,2193.75
2019-04-16T11:04:10.624Z,2103.75
2019-04-16T11:05:10.644Z,1946.25
2019-04-16T11:06:10.634Z,1912.50
2019-04-16T11:07:10.584Z,1923.75
2019-04-16T11:08:10.559Z,2379.38
2019-04-16T11:09:10.563Z,1957.50
2019-04-16T11:10:11.901Z,2002.50
2019-04-16T11:11:10.593Z,1766.25
2019-04-16T11:12:10.512Z,1771.88
2019-04-16T11:13:10.530Z,1732.50
2019-04-16T11:14:10.542Z,1423.12
2019-04-16T11:15:10.494Z,1423.12
2019-04-16T11:16:10.490Z,1496.25
2019-04-16T11:17:10.480Z,1788.75
2019-04-16T11:18:10.450Z,1929.38
2019-04-16T11:19:10.468Z,1614.38
2019-04-16T11:20:10.447Z,1434.38
2019-04-16T11:21:10.545Z,1738.12
2019-04-16T11:22:10.449Z,1327.50
2019-04-16T11:23:10.407Z,1265.62
2019-04-16T11:24:10.387Z,1243.12
2019-04-16T11:25:10.391Z,1440.00
2019-04-16T11:26:10.376Z,1878.75
2019-04-16T11:27:10.496Z,1968.75
2019-04-16T11:28:13.716Z,2182.50
2019-04-16T11:29:10.339Z,2328.75
2019-04-16T11:30:10.435Z,2311.88
2019-04-16T11:31:10.631Z,1996.88
2019-04-16T11:32:10.305Z,2070.00
2019-04-16T11:33:10.292Z,2025.00
2019-04-16T11:34:10.293Z,1665.00
2019-04-16T11:35:13.388Z,1603.12
2019-04-16T11:36:19.585Z,1428.75
2019-04-16T11:37:11.286Z,1333.12
2019-04-16T11:38:10.250Z,1282.50
2019-04-16T11:39:10.386Z,1327.50
2019-04-16T11:40:10.543Z,1378.12
2019-04-16T11:41:10.253Z,1518.75
2019-04-16T11:42:10.200Z,1411.88
2019-04-16T11:43:10.214Z,1299.38
2019-04-16T11:44:15.618Z,1192.50
2019-04-16T11:45:11.166Z,1113.75
2019-04-16T11:46:10.209Z,1091.25
2019-04-16T11:47:10.182Z,1096.88
2019-04-16T11:48:10.251Z,1130.62
2019-04-16T11:49:10.245Z,1158.75
2019-04-16T11:50:10.175Z,1186.88
2019-04-16T11:51:10.181Z,1192.50
2019-04-16T11:52:10.206Z,1170.00
2019-04-16T11:53:10.145Z,1170.00
2019-04-16T11:54:11.827Z,1186.88
2019-04-16T11:55:10.080Z,1220.62
2019-04-16T11:56:10.125Z,1265.62
2019-04-16T11:57:13.008Z,1333.12
2019-04-16T11:58:10.190Z,1732.50
2019-04-16T11:59:10.020Z,1406.25
2019-04-16T12:00:10.087Z,1440.00
2019-04-16T12:01:10.282Z,1501.88
2019-04-16T12:02:10.067Z,1586.25
2019-04-16T12:03:10.181Z,1749.38
2019-04-16T12:04:10.934Z,1957.50
2019-04-16T12:05:10.023Z,1800.00
2019-04-16T12:06:10.167Z,2075.62
2019-04-16T12:07:09.958Z,3560.62
2019-04-16T12:08:09.939Z,2261.25
2019-04-16T12:09:09.931Z,2868.75
2019-04-16T12:10:09.943Z,2115.00
2019-04-16T12:11:09.932Z,1828.12
2019-04-16T12:12:09.947Z,1659.38
2019-04-16T12:13:09.905Z,1575.00
2019-04-16T12:14:10.427Z,1406.25
2019-04-16T12:15:09.851Z,1372.50
2019-04-16T12:16:09.885Z,1389.38
2019-04-16T12:17:09.845Z,1417.50
2019-04-16T12:18:09.849Z,1423.12
2019-04-16T12:19:09.936Z,1417.50
2019-04-16T12:20:09.867Z,1411.88
2019-04-16T12:21:10.193Z,1423.12
2019-04-16T12:22:09.865Z,1333.12
2019-04-16T12:23:09.793Z,1316.25
2019-04-16T12:24:09.763Z,1299.38
2019-04-16T12:25:09.760Z,1288.12
2019-04-16T12:26:10.006Z,1282.50
2019-04-16T12:27:09.747Z,1282.50
2019-04-16T12:28:12.577Z,1355.62
2019-04-16T12:29:09.791Z,1344.38
2019-04-16T12:30:09.741Z,1395.00
2019-04-16T12:31:09.705Z,1428.75
2019-04-16T12:32:09.723Z,1501.88
2019-04-16T12:33:13.686Z,1575.00
2019-04-16T12:34:09.687Z,1766.25
2019-04-16T12:35:09.659Z,1670.62
2019-04-16T12:36:12.758Z,1890.00
2019-04-16T12:37:09.778Z,1738.12
2019-04-16T12:38:13.131Z,1608.75